createdAt,value
2022-10-22T00:00:08.443Z,0.00
2022-10-22T00:01:08.448Z,0.00
2022-10-22T00:02:08.474Z,0.00
2022-10-22T00:03:08.526Z,0.00
2022-10-22T00:04:08.454Z,0.00
2022-10-22T00:05:08.452Z,0.00
2022-10-22T00:06:08.446Z,0.00
2022-10-22T00:07:08.450Z,0.00
2022-10-22T00:08:08.445Z,0.00
2022-10-22T00:09:08.526Z,0.00
2022-10-22T00:10:08.447Z,0.00
2022-10-22T00:11:08.447Z,0.00
2022-10-22T00:12:08.449Z,0.00
2022-10-22T00:13:08.466Z,0.00
2022-10-22T00:14:08.448Z,0.00
2022-10-22T00:15:08.444Z,0.00
2022-10-22T00:16:08.447Z,0.00
2022-10-22T00:17:11.616Z,0.00
2022-10-22T00:18:08.466Z,0.00
2022-10-22T00:19:08.446Z,0.00
2022-10-22T00:20:08.446Z,0.00
2022-10-22T00:21:08.452Z,0.00
2022-10-22T00:22:08.446Z,0.00
2022-10-22T00:23:08.478Z,0.00
2022-10-22T00:24:08.446Z,0.00
2022-10-22T00:25:08.445Z,0.00
2022-10-22T00:26:08.446Z,0.00
2022-10-22T00:27:08.441Z,0.00
2022-10-22T00:28:08.442Z,0.00
2022-10-22T00:29:08.445Z,0.00
2022-10-22T00:30:08.441Z,0.00
2022-10-22T00:31:08.447Z,0.00
2022-10-22T00:32:08.445Z,0.00
2022-10-22T00:33:08.458Z,0.00
2022-10-22T00:34:08.462Z,0.00
2022-10-22T00:35:08.445Z,0.00
2022-10-22T00:36:08.448Z,0.00
2022-10-22T00:37:08.445Z,0.00
2022-10-22T00:38:08.469Z,0.00
2022-10-22T00:39:08.444Z,0.00
2022-10-22T00:40:08.443Z,0.00
2022-10-22T00:41:08.441Z,0.00
2022-10-22T00:42:08.442Z,0.00
2022-10-22T00:43:08.442Z,0.00
2022-10-22T00:44:08.446Z,0.00
2022-10-22T00:45:08.441Z,0.00
2022-10-22T00:46:08.442Z,0.00
2022-10-22T00:47:08.442Z,0.00
2022-10-22T00:48:08.443Z,0.00
2022-10-22T00:49:08.440Z,0.00
2022-10-22T00:50:08.462Z,0.00
2022-10-22T00:51:08.466Z,0.00
2022-10-22T00:52:08.439Z,0.00
2022-10-22T00:53:08.438Z,0.00
2022-10-22T00:54:08.442Z,0.00
2022-10-22T00:55:08.442Z,0.00
2022-10-22T00:56:08.442Z,0.00
2022-10-22T00:57:08.438Z,0.00
2022-10-22T00:58:08.437Z,0.00
2022-10-22T01:00:08.440Z,0.00
2022-10-22T01:01:08.527Z,0.00
2022-10-22T01:02:08.440Z,0.00
2022-10-22T01:03:08.442Z,0.00
2022-10-22T01:04:08.438Z,0.00
2022-10-22T01:05:08.437Z,0.00
2022-10-22T01:06:08.460Z,0.00
2022-10-22T01:07:08.438Z,0.00
2022-10-22T01:08:08.585Z,0.00
2022-10-22T01:09:08.510Z,0.00
2022-10-22T01:10:08.437Z,0.00
2022-10-22T01:11:08.434Z,0.00
2022-10-22T01:12:08.434Z,0.00
2022-10-22T01:13:08.435Z,0.00
2022-10-22T01:14:08.439Z,0.00
2022-10-22T01:15:08.436Z,0.00
2022-10-22T01:16:08.439Z,0.00
2022-10-22T01:17:08.478Z,0.00
2022-10-22T01:18:08.435Z,0.00
2022-10-22T01:19:08.436Z,0.00
2022-10-22T01:20:08.439Z,0.00
2022-10-22T01:21:08.432Z,0.00
2022-10-22T01:22:08.456Z,0.00
2022-10-22T01:23:08.431Z,0.00
2022-10-22T01:24:08.434Z,0.00
2022-10-22T01:25:08.435Z,0.00
2022-10-22T01:26:08.436Z,0.00
2022-10-22T01:27:08.433Z,0.00
2022-10-22T01:28:08.439Z,0.00
2022-10-22T01:29:08.437Z,0.00
2022-10-22T01:30:08.434Z,0.00
2022-10-22T01:31:08.432Z,0.00
2022-10-22T01:32:08.436Z,0.00
2022-10-22T01:33:08.434Z,0.00
2022-10-22T01:34:08.435Z,0.00
2022-10-22T01:35:08.433Z,0.00
2022-10-22T01:36:08.431Z,0.00
2022-10-22T01:37:08.433Z,0.00
2022-10-22T01:38:08.457Z,0.00
2022-10-22T01:39:08.436Z,0.00
2022-10-22T01:40:08.431Z,0.00
2022-10-22T01:41:08.433Z,0.00
2022-10-22T01:42:08.428Z,0.00
2022-10-22T01:43:08.436Z,0.00
2022-10-22T01:44:08.435Z,0.00
2022-10-22T01:45:08.434Z,0.00
2022-10-22T01:46:08.442Z,0.00
2022-10-22T01:47:08.429Z,0.00
2022-10-22T01:48:08.435Z,0.00
2022-10-22T01:49:08.430Z,0.00
2022-10-22T01:50:08.435Z,0.00
2022-10-22T01:51:08.430Z,0.00
2022-10-22T01:52:08.431Z,0.00
2022-10-22T01:53:08.427Z,0.00
2022-10-22T01:54:08.518Z,0.00
2022-10-22T01:55:08.431Z,0.00
2022-10-22T01:56:08.430Z,0.00
2022-10-22T01:57:08.430Z,0.00
2022-10-22T01:58:08.424Z,0.00
2022-10-22T01:59:08.431Z,0.00
2022-10-22T02:00:08.427Z,0.00
2022-10-22T02:01:08.470Z,0.00
2022-10-22T02:02:08.425Z,0.00
2022-10-22T02:03:08.427Z,0.00
2022-10-22T02:04:08.427Z,0.00
2022-10-22T02:05:08.426Z,0.00
2022-10-22T02:06:08.430Z,0.00
2022-10-22T02:07:08.425Z,0.00
2022-10-22T02:08:08.430Z,0.00
2022-10-22T02:09:08.543Z,0.00
2022-10-22T02:10:08.453Z,0.00
2022-10-22T02:11:08.425Z,0.00
2022-10-22T02:12:08.463Z,0.00
2022-10-22T02:13:08.426Z,0.00
2022-10-22T02:14:08.423Z,0.00
2022-10-22T02:15:08.424Z,0.00
2022-10-22T02:16:08.423Z,0.00
2022-10-22T02:17:08.422Z,0.00
2022-10-22T02:18:08.426Z,0.00
2022-10-22T02:19:08.422Z,0.00
2022-10-22T02:20:08.429Z,0.00
2022-10-22T02:22:08.426Z,0.00
2022-10-22T02:23:08.420Z,0.00
2022-10-22T02:24:08.427Z,0.00
2022-10-22T02:25:08.426Z,0.00
2022-10-22T02:26:08.445Z,0.00
2022-10-22T02:27:08.420Z,0.00
2022-10-22T02:28:08.420Z,0.00
2022-10-22T02:29:08.420Z,0.00
2022-10-22T02:30:08.474Z,0.00
2022-10-22T02:31:08.420Z,0.00
2022-10-22T02:32:08.423Z,0.00
2022-10-22T02:33:08.425Z,0.00
2022-10-22T02:34:08.421Z,0.00
2022-10-22T02:35:08.420Z,0.00
2022-10-22T02:36:08.422Z,0.00
2022-10-22T02:37:08.422Z,0.00
2022-10-22T02:38:08.422Z,0.00
2022-10-22T02:39:08.473Z,0.00
2022-10-22T02:40:08.425Z,0.00
2022-10-22T02:41:08.420Z,0.00
2022-10-22T02:42:08.442Z,0.00
2022-10-22T02:43:08.417Z,0.00
2022-10-22T02:44:08.425Z,0.00
2022-10-22T02:45:08.416Z,0.00
2022-10-22T02:46:08.418Z,0.00
2022-10-22T02:47:08.420Z,0.00
2022-10-22T02:48:08.448Z,0.00
2022-10-22T02:49:08.415Z,0.00
2022-10-22T02:50:10.322Z,0.00
2022-10-22T02:51:08.419Z,0.00
2022-10-22T02:52:08.417Z,0.00
2022-10-22T02:53:08.416Z,0.00
2022-10-22T02:54:08.416Z,0.00
2022-10-22T02:55:08.418Z,0.00
2022-10-22T02:56:08.422Z,0.00
2022-10-22T02:57:08.452Z,0.00
2022-10-22T02:58:08.441Z,0.00
2022-10-22T02:59:08.414Z,0.00
2022-10-22T03:00:08.417Z,0.00
2022-10-22T03:01:10.312Z,0.00
2022-10-22T03:02:08.419Z,0.00
2022-10-22T03:03:08.417Z,0.00
2022-10-22T03:04:08.415Z,0.00
2022-10-22T03:05:08.415Z,0.00
2022-10-22T03:06:08.411Z,0.00
2022-10-22T03:07:08.415Z,0.00
2022-10-22T03:08:08.420Z,0.00
2022-10-22T03:09:08.467Z,0.00
2022-10-22T03:10:08.414Z,0.00
2022-10-22T03:11:08.414Z,0.00
2022-10-22T03:12:08.414Z,0.00
2022-10-22T03:13:08.413Z,0.00
2022-10-22T03:14:08.437Z,0.00
2022-10-22T03:15:08.416Z,0.00
2022-10-22T03:16:08.487Z,0.00
2022-10-22T03:17:08.415Z,0.00
2022-10-22T03:18:08.413Z,0.00
2022-10-22T03:19:08.419Z,0.00
2022-10-22T03:20:08.413Z,0.00
2022-10-22T03:21:08.412Z,0.00
2022-10-22T03:22:08.409Z,0.00
2022-10-22T03:23:08.413Z,0.00
2022-10-22T03:24:08.420Z,0.00
2022-10-22T03:25:08.410Z,0.00
2022-10-22T03:26:08.411Z,0.00
2022-10-22T03:27:08.414Z,0.00
2022-10-22T03:28:08.413Z,0.00
2022-10-22T03:29:08.411Z,0.00
2022-10-22T03:30:08.444Z,0.00
2022-10-22T03:31:08.408Z,0.00
2022-10-22T03:32:08.411Z,0.00
2022-10-22T03:33:08.409Z,0.00
2022-10-22T03:34:08.411Z,0.00
2022-10-22T03:35:08.407Z,0.00
2022-10-22T03:36:08.407Z,0.00
2022-10-22T03:37:08.419Z,0.00
2022-10-22T03:38:08.407Z,0.00
2022-10-22T03:39:08.410Z,0.00
2022-10-22T03:40:08.412Z,0.00
2022-10-22T03:41:08.411Z,0.00
2022-10-22T03:42:08.407Z,0.00
2022-10-22T03:43:08.407Z,0.00
2022-10-22T03:44:08.409Z,0.00
2022-10-22T03:45:08.408Z,0.00
2022-10-22T03:46:08.434Z,0.00
2022-10-22T03:47:08.416Z,0.00
2022-10-22T03:48:08.405Z,0.00
2022-10-22T03:49:08.407Z,0.00
2022-10-22T03:50:08.410Z,0.00
2022-10-22T03:51:08.405Z,0.00
2022-10-22T03:52:08.406Z,0.00
2022-10-22T03:53:08.409Z,0.00
2022-10-22T03:54:08.406Z,0.00
2022-10-22T03:55:08.403Z,0.00
2022-10-22T03:56:08.406Z,0.00
2022-10-22T03:57:08.406Z,0.00
2022-10-22T03:58:08.413Z,0.00
2022-10-22T03:59:08.402Z,0.00
2022-10-22T04:00:08.405Z,0.00
2022-10-22T04:01:08.469Z,0.00
2022-10-22T04:02:08.429Z,0.00
2022-10-22T04:03:08.407Z,0.00
2022-10-22T04:04:08.403Z,0.00
2022-10-22T04:05:08.755Z,0.00
2022-10-22T04:06:08.403Z,0.00
2022-10-22T04:07:08.405Z,0.00
2022-10-22T04:08:08.406Z,0.00
2022-10-22T04:09:08.495Z,0.00
2022-10-22T04:10:08.406Z,0.00
2022-10-22T04:11:08.401Z,0.00
2022-10-22T04:12:08.403Z,0.00
2022-10-22T04:13:08.402Z,0.00
2022-10-22T04:14:08.399Z,0.00
2022-10-22T04:15:08.404Z,0.00
2022-10-22T04:16:08.403Z,0.00
2022-10-22T04:17:08.397Z,0.00
2022-10-22T04:18:08.423Z,0.00
2022-10-22T04:19:08.403Z,0.00
2022-10-22T04:20:08.403Z,0.00
2022-10-22T04:21:08.398Z,0.00
2022-10-22T04:22:08.399Z,0.00
2022-10-22T04:23:08.395Z,0.00
2022-10-22T04:24:08.399Z,0.00
2022-10-22T04:25:08.403Z,0.00
2022-10-22T04:26:08.397Z,0.00
2022-10-22T04:27:08.395Z,0.00
2022-10-22T04:28:08.395Z,0.00
2022-10-22T04:29:11.854Z,0.00
2022-10-22T04:30:08.403Z,0.00
2022-10-22T04:31:08.398Z,0.00
2022-10-22T04:32:08.398Z,0.00
2022-10-22T04:33:08.397Z,0.00
2022-10-22T04:34:08.427Z,0.00
2022-10-22T04:35:08.393Z,0.00
2022-10-22T04:36:08.398Z,0.00
2022-10-22T04:37:08.395Z,0.00
2022-10-22T04:38:08.396Z,0.00
2022-10-22T04:39:08.396Z,0.00
2022-10-22T04:40:08.396Z,0.00
2022-10-22T04:41:08.396Z,0.00
2022-10-22T04:42:08.394Z,0.00
2022-10-22T04:43:08.391Z,0.00
2022-10-22T04:44:12.254Z,0.00
2022-10-22T04:45:08.392Z,0.00
2022-10-22T04:46:08.394Z,0.00
2022-10-22T04:47:08.394Z,0.00
2022-10-22T04:48:08.400Z,0.00
2022-10-22T04:49:08.391Z,0.00
2022-10-22T04:50:08.419Z,0.00
2022-10-22T04:51:08.392Z,0.00
2022-10-22T04:52:08.393Z,0.00
2022-10-22T04:53:08.394Z,0.00
2022-10-22T04:54:08.394Z,0.00
2022-10-22T04:55:08.388Z,0.00
2022-10-22T04:56:08.398Z,0.00
2022-10-22T04:57:08.389Z,0.00
2022-10-22T04:58:08.388Z,0.00
2022-10-22T04:59:08.390Z,0.00
2022-10-22T05:00:08.388Z,0.00
2022-10-22T05:01:08.474Z,0.00
2022-10-22T05:02:08.394Z,0.00
2022-10-22T05:03:08.390Z,0.00
2022-10-22T05:04:08.392Z,0.00
2022-10-22T05:05:08.391Z,0.00
2022-10-22T05:06:08.521Z,0.00
2022-10-22T05:07:08.391Z,0.00
2022-10-22T05:08:08.397Z,0.00
2022-10-22T05:09:08.466Z,0.00
2022-10-22T05:10:08.385Z,0.00
2022-10-22T05:11:08.392Z,0.00
2022-10-22T05:12:08.389Z,0.00
2022-10-22T05:13:08.390Z,4.00
2022-10-22T05:14:08.380Z,4.00
2022-10-22T05:15:08.383Z,4.00
2022-10-22T05:16:08.386Z,0.00
2022-10-22T05:17:08.391Z,0.00
2022-10-22T05:18:08.380Z,0.00
2022-10-22T05:19:08.385Z,4.00
2022-10-22T05:20:08.383Z,4.00
2022-10-22T05:21:08.388Z,4.00
2022-10-22T05:22:08.407Z,4.00
2022-10-22T05:23:08.383Z,4.00
2022-10-22T05:24:08.381Z,8.00
2022-10-22T05:25:08.384Z,8.00
2022-10-22T05:26:08.385Z,12.00
2022-10-22T05:27:08.483Z,12.00
2022-10-22T05:28:08.386Z,12.00
2022-10-22T05:29:08.383Z,16.00
2022-10-22T05:30:08.381Z,20.00
2022-10-22T05:31:08.389Z,24.00
2022-10-22T05:32:08.381Z,28.00
2022-10-22T05:33:08.382Z,28.00
2022-10-22T05:34:08.379Z,36.00
2022-10-22T05:35:08.378Z,40.00
2022-10-22T05:36:08.382Z,44.00
2022-10-22T05:37:08.384Z,48.00
2022-10-22T05:38:08.401Z,52.00
2022-10-22T05:39:08.379Z,52.00
2022-10-22T05:40:19.289Z,56.00
2022-10-22T05:41:08.382Z,60.00
2022-10-22T05:42:08.378Z,64.00
2022-10-22T05:43:08.379Z,68.00
2022-10-22T05:44:08.393Z,72.00
2022-10-22T05:45:08.382Z,80.00
2022-10-22T05:46:08.385Z,92.00
2022-10-22T05:47:08.379Z,100.00
2022-10-22T05:48:08.381Z,108.00
2022-10-22T05:49:08.381Z,120.00
2022-10-22T05:50:08.380Z,132.00
2022-10-22T05:51:08.377Z,144.00
2022-10-22T05:52:08.375Z,156.00
2022-10-22T05:53:08.374Z,164.00
2022-10-22T05:54:08.393Z,172.00
2022-10-22T05:55:08.377Z,176.00
2022-10-22T05:56:08.373Z,184.00
2022-10-22T05:57:08.376Z,188.00
2022-10-22T05:58:08.372Z,200.00
2022-10-22T05:59:08.374Z,208.00
2022-10-22T06:00:11.626Z,212.00
2022-10-22T06:01:08.377Z,220.00
2022-10-22T06:02:08.455Z,232.00
2022-10-22T06:03:08.374Z,244.00
2022-10-22T06:04:08.375Z,248.00
2022-10-22T06:05:08.377Z,256.00
2022-10-22T06:06:08.375Z,264.00
2022-10-22T06:07:08.371Z,272.00
2022-10-22T06:08:08.376Z,280.00
2022-10-22T06:09:08.394Z,300.00
2022-10-22T06:10:08.397Z,316.00
2022-10-22T06:11:08.376Z,324.00
2022-10-22T06:12:08.370Z,340.00
2022-10-22T06:13:08.373Z,360.00
2022-10-22T06:14:08.374Z,364.00
2022-10-22T06:15:08.370Z,384.00
2022-10-22T06:16:08.372Z,388.00
2022-10-22T06:17:08.376Z,420.00
2022-10-22T06:18:08.369Z,420.00
2022-10-22T06:19:08.374Z,428.00
2022-10-22T06:20:08.376Z,452.00
2022-10-22T06:21:08.370Z,452.00
2022-10-22T06:22:08.369Z,440.00
2022-10-22T06:23:08.372Z,436.00
2022-10-22T06:24:08.368Z,448.00
2022-10-22T06:25:08.371Z,456.00
2022-10-22T06:26:08.389Z,452.00
2022-10-22T06:27:08.379Z,452.00
2022-10-22T06:28:08.372Z,456.00
2022-10-22T06:29:08.372Z,464.00
2022-10-22T06:30:08.370Z,476.00
2022-10-22T06:31:08.372Z,472.00
2022-10-22T06:32:08.370Z,492.00
2022-10-22T06:33:08.366Z,524.00
2022-10-22T06:34:08.371Z,552.00
2022-10-22T06:35:08.367Z,596.00
2022-10-22T06:36:08.370Z,644.00
2022-10-22T06:37:08.371Z,696.00
2022-10-22T06:38:08.370Z,780.00
2022-10-22T06:39:08.364Z,868.00
2022-10-22T06:40:08.362Z,972.00
2022-10-22T06:41:08.369Z,1056.00
2022-10-22T06:42:08.384Z,1100.00
2022-10-22T06:43:08.367Z,1136.00
2022-10-22T06:44:08.362Z,1140.00
2022-10-22T06:45:08.363Z,1140.00
2022-10-22T06:46:08.362Z,1156.00
2022-10-22T06:47:08.365Z,1184.00
2022-10-22T06:48:08.367Z,1176.00
2022-10-22T06:49:08.363Z,1132.00
2022-10-22T06:50:08.371Z,1132.00
2022-10-22T06:51:08.365Z,1152.00
2022-10-22T06:52:08.360Z,1212.00
2022-10-22T06:53:08.396Z,1240.00
2022-10-22T06:54:08.367Z,1244.00
2022-10-22T06:55:08.362Z,1244.00
2022-10-22T06:56:08.360Z,1204.00
2022-10-22T06:57:08.360Z,1128.00
2022-10-22T06:58:08.382Z,1088.00
2022-10-22T06:59:08.362Z,1088.00
2022-10-22T07:00:08.367Z,1080.00
2022-10-22T07:01:08.445Z,1048.00
2022-10-22T07:02:08.371Z,1056.00
2022-10-22T07:03:08.364Z,1116.00
2022-10-22T07:04:08.367Z,1208.00
2022-10-22T07:05:08.365Z,1320.00
2022-10-22T07:06:08.361Z,1364.00
2022-10-22T07:07:08.362Z,1384.00
2022-10-22T07:08:08.355Z,1388.00
2022-10-22T07:09:08.579Z,1448.00
2022-10-22T07:10:08.361Z,1428.00
2022-10-22T07:11:08.363Z,1428.00
2022-10-22T07:12:08.361Z,1348.00
2022-10-22T07:13:08.367Z,1284.00
2022-10-22T07:14:08.378Z,1236.00
2022-10-22T07:15:08.357Z,1252.00
2022-10-22T07:16:08.357Z,1360.00
2022-10-22T07:17:08.361Z,1492.00
2022-10-22T07:18:08.356Z,1660.00
2022-10-22T07:19:08.357Z,1788.00
2022-10-22T07:20:08.355Z,1856.00
2022-10-22T07:21:08.359Z,1832.00
2022-10-22T07:22:08.356Z,1824.00
2022-10-22T07:23:08.355Z,1884.00
2022-10-22T07:24:08.360Z,1920.00
2022-10-22T07:25:08.356Z,1924.00
2022-10-22T07:26:08.361Z,1960.00
2022-10-22T07:27:10.938Z,1916.00
2022-10-22T07:28:08.358Z,1848.00
2022-10-22T07:29:08.356Z,1816.00
2022-10-22T07:30:08.382Z,1800.00
2022-10-22T07:31:08.359Z,1796.00
2022-10-22T07:32:08.352Z,1828.00
2022-10-22T07:33:08.358Z,1888.00
2022-10-22T07:34:08.405Z,1968.00
2022-10-22T07:35:08.357Z,2104.00
2022-10-22T07:36:08.364Z,2244.00
2022-10-22T07:37:08.365Z,2372.00
2022-10-22T07:38:08.352Z,2540.00
2022-10-22T07:39:08.364Z,2728.00
2022-10-22T07:40:08.351Z,2936.00
2022-10-22T07:41:08.356Z,3188.00
2022-10-22T07:42:08.352Z,3456.00
2022-10-22T07:43:08.358Z,3764.00
2022-10-22T07:44:08.352Z,4044.00
2022-10-22T07:45:08.356Z,4480.00
2022-10-22T07:46:08.376Z,4784.00
2022-10-22T07:47:08.359Z,5004.00
2022-10-22T07:48:08.353Z,5240.00
2022-10-22T07:49:08.356Z,5380.00
2022-10-22T07:50:08.352Z,5400.00
2022-10-22T07:51:08.351Z,5340.00
2022-10-22T07:52:08.352Z,5360.00
2022-10-22T07:53:08.352Z,5260.00
2022-10-22T07:54:08.350Z,5072.00
2022-10-22T07:55:08.357Z,4856.00
2022-10-22T07:56:08.356Z,4708.00
2022-10-22T07:57:08.360Z,4716.00
2022-10-22T07:58:08.349Z,4684.00
2022-10-22T07:59:08.351Z,4440.00
2022-10-22T08:00:08.359Z,4344.00
2022-10-22T08:01:08.381Z,4220.00
2022-10-22T08:02:08.367Z,4280.00
2022-10-22T08:03:08.359Z,4008.00
2022-10-22T08:04:08.357Z,4320.00
2022-10-22T08:05:08.352Z,3884.00
2022-10-22T08:06:08.352Z,3860.00
2022-10-22T08:07:08.351Z,3596.00
2022-10-22T08:08:08.354Z,3756.00
2022-10-22T08:09:08.391Z,3672.00
2022-10-22T08:10:08.353Z,3624.00
2022-10-22T08:11:08.357Z,3404.00
2022-10-22T08:12:08.351Z,3260.00
2022-10-22T08:13:08.351Z,3052.00
2022-10-22T08:14:08.352Z,3088.00
2022-10-22T08:15:08.355Z,2860.00
2022-10-22T08:16:08.352Z,2728.00
2022-10-22T08:17:08.351Z,2680.00
2022-10-22T08:18:08.371Z,2620.00
2022-10-22T08:19:08.357Z,2524.00
2022-10-22T08:20:08.351Z,2512.00
2022-10-22T08:21:08.447Z,2480.00
2022-10-22T08:22:08.348Z,2560.00
2022-10-22T08:23:08.345Z,2480.00
2022-10-22T08:24:08.353Z,2432.00
2022-10-22T08:25:08.349Z,2648.00
2022-10-22T08:26:08.348Z,2700.00
2022-10-22T08:27:08.349Z,2712.00
2022-10-22T08:28:08.353Z,2864.00
2022-10-22T08:29:08.350Z,3104.00
2022-10-22T08:30:08.349Z,3144.00
2022-10-22T08:31:08.522Z,3520.00
2022-10-22T08:32:08.352Z,3432.00
2022-10-22T08:33:08.356Z,3628.00
2022-10-22T08:34:08.374Z,3876.00
2022-10-22T08:35:08.358Z,3756.00
2022-10-22T08:36:08.368Z,3764.00
2022-10-22T08:37:08.353Z,3728.00
2022-10-22T08:38:08.349Z,3644.00
2022-10-22T08:39:08.351Z,3740.00
2022-10-22T08:40:08.350Z,3764.00
2022-10-22T08:41:08.355Z,3944.00
2022-10-22T08:42:08.350Z,4096.00
2022-10-22T08:43:08.356Z,4160.00
2022-10-22T08:44:08.351Z,4248.00
2022-10-22T08:45:08.362Z,3976.00
2022-10-22T08:46:08.348Z,4152.00
2022-10-22T08:47:08.351Z,4396.00
2022-10-22T08:48:08.347Z,4420.00
2022-10-22T08:50:08.367Z,4388.00
2022-10-22T08:51:08.350Z,3736.00
2022-10-22T08:52:08.346Z,3544.00
2022-10-22T08:53:08.354Z,3408.00
2022-10-22T08:54:08.351Z,2884.00
2022-10-22T08:55:08.357Z,3156.00
2022-10-22T08:56:08.347Z,3196.00
2022-10-22T08:57:08.350Z,2952.00
2022-10-22T08:58:08.350Z,2816.00
2022-10-22T08:59:08.349Z,2900.00
2022-10-22T09:00:08.348Z,2800.00
2022-10-22T09:01:08.353Z,2648.00
2022-10-22T09:02:08.347Z,2816.00
2022-10-22T09:03:08.353Z,2960.00
2022-10-22T09:04:08.350Z,2780.00
2022-10-22T09:05:11.556Z,2764.00
2022-10-22T09:06:08.376Z,3340.00
2022-10-22T09:07:08.358Z,3580.00
2022-10-22T09:08:08.352Z,3972.00
2022-10-22T09:09:08.438Z,4156.00
2022-10-22T09:10:08.355Z,4352.00
2022-10-22T09:11:08.350Z,4848.00
2022-10-22T09:12:08.356Z,4796.00
2022-10-22T09:13:08.354Z,4748.00
2022-10-22T09:14:08.380Z,5192.00
2022-10-22T09:15:08.354Z,5420.00
2022-10-22T09:16:08.353Z,4748.00
2022-10-22T09:17:08.350Z,4332.00
2022-10-22T09:18:08.348Z,3964.00
2022-10-22T09:19:08.350Z,3888.00
2022-10-22T09:20:08.355Z,4036.00
2022-10-22T09:21:08.353Z,3836.00
2022-10-22T09:22:08.371Z,3668.00
2022-10-22T09:23:08.347Z,4188.00
2022-10-22T09:24:08.353Z,3744.00
2022-10-22T09:25:08.348Z,3572.00
2022-10-22T09:26:08.358Z,4108.00
2022-10-22T09:27:08.358Z,4632.00
2022-10-22T09:28:08.350Z,4844.00
2022-10-22T09:29:08.356Z,4820.00
2022-10-22T09:30:08.361Z,5000.00
2022-10-22T09:31:08.356Z,5272.00
2022-10-22T09:32:08.352Z,4260.00
2022-10-22T09:33:08.352Z,4116.00
2022-10-22T09:34:08.350Z,4500.00
2022-10-22T09:35:08.351Z,3980.00
2022-10-22T09:36:08.356Z,3936.00
2022-10-22T09:37:08.350Z,4120.00
2022-10-22T09:38:08.371Z,4576.00
2022-10-22T09:39:08.430Z,4580.00
2022-10-22T09:40:08.353Z,5116.00
2022-10-22T09:41:08.354Z,5224.00
2022-10-22T09:42:08.355Z,5296.00
2022-10-22T09:43:08.353Z,5840.00
2022-10-22T09:44:08.355Z,5660.00
2022-10-22T09:45:08.349Z,6468.00
2022-10-22T09:46:08.355Z,7428.00
2022-10-22T09:47:08.351Z,7964.00
2022-10-22T09:48:08.356Z,8464.00
2022-10-22T09:49:08.357Z,9008.00
2022-10-22T09:50:08.363Z,9708.00
2022-10-22T09:51:08.364Z,8916.00
2022-10-22T09:52:08.361Z,7444.00
2022-10-22T09:53:08.382Z,6944.00
2022-10-22T09:54:08.375Z,6124.00
2022-10-22T09:55:08.357Z,4784.00
2022-10-22T09:56:08.361Z,4900.00
2022-10-22T09:57:08.384Z,5076.00
2022-10-22T09:58:08.363Z,5420.00
2022-10-22T09:59:08.354Z,6132.00
2022-10-22T10:00:08.358Z,5340.00
2022-10-22T10:01:08.363Z,4592.00
2022-10-22T10:02:19.777Z,5152.00
2022-10-22T10:03:08.444Z,4968.00
2022-10-22T10:04:09.840Z,4472.00
2022-10-22T10:05:08.364Z,4148.00
2022-10-22T10:06:08.370Z,4596.00
2022-10-22T10:07:08.361Z,4260.00
2022-10-22T10:08:08.365Z,4820.00
2022-10-22T10:09:08.444Z,5360.00
2022-10-22T10:10:08.387Z,5308.00
2022-10-22T10:11:08.361Z,5392.00
2022-10-22T10:12:08.360Z,6832.00
2022-10-22T10:13:08.363Z,9468.00
2022-10-22T10:14:08.361Z,15440.00
2022-10-22T10:15:08.362Z,12068.00
2022-10-22T10:16:08.366Z,11840.00
2022-10-22T10:17:08.370Z,9916.00
2022-10-22T10:18:08.367Z,9484.00
2022-10-22T10:19:08.368Z,8004.00
2022-10-22T10:20:08.368Z,7412.00
2022-10-22T10:21:08.425Z,7760.00
2022-10-22T10:22:08.371Z,7996.00
2022-10-22T10:23:08.369Z,7776.00
2022-10-22T10:24:08.370Z,7516.00
2022-10-22T10:25:08.374Z,6356.00
2022-10-22T10:26:08.401Z,6812.00
2022-10-22T10:27:08.371Z,6316.00
2022-10-22T10:28:08.370Z,5236.00
2022-10-22T10:29:08.374Z,5984.00
2022-10-22T10:30:08.385Z,6232.00
2022-10-22T10:31:08.376Z,5848.00
2022-10-22T10:32:08.374Z,4888.00
2022-10-22T10:33:08.374Z,5180.00
2022-10-22T10:34:08.378Z,4716.00
2022-10-22T10:35:08.375Z,4360.00
2022-10-22T10:36:08.377Z,3760.00
2022-10-22T10:37:08.382Z,3020.00
2022-10-22T10:38:08.376Z,3148.00
2022-10-22T10:39:08.380Z,3832.00
2022-10-22T10:40:08.383Z,3628.00
2022-10-22T10:41:08.378Z,3388.00
2022-10-22T10:42:08.419Z,3352.00
2022-10-22T10:43:08.381Z,3144.00
2022-10-22T10:44:08.379Z,2856.00
2022-10-22T10:45:08.381Z,2904.00
2022-10-22T10:46:08.445Z,2900.00
2022-10-22T10:47:08.383Z,2884.00
2022-10-22T10:48:08.381Z,2996.00
2022-10-22T10:49:08.384Z,2920.00
2022-10-22T10:50:08.392Z,2580.00
2022-10-22T10:51:08.383Z,2684.00
2022-10-22T10:52:08.385Z,3820.00
2022-10-22T10:53:08.380Z,4172.00
2022-10-22T10:54:08.388Z,4512.00
2022-10-22T10:55:08.384Z,5124.00
2022-10-22T10:56:08.389Z,5344.00
2022-10-22T10:57:08.389Z,5048.00
2022-10-22T10:58:08.422Z,5268.00
2022-10-22T10:59:08.390Z,5228.00
2022-10-22T11:00:08.388Z,5156.00
2022-10-22T11:01:08.392Z,5472.00
2022-10-22T11:02:08.391Z,5580.00
2022-10-22T11:03:08.388Z,5388.00
2022-10-22T11:04:08.394Z,6344.00
2022-10-22T11:05:08.394Z,6368.00
2022-10-22T11:06:08.394Z,6388.00
2022-10-22T11:07:11.297Z,7176.00
2022-10-22T11:08:08.399Z,8132.00
2022-10-22T11:09:08.435Z,7972.00
2022-10-22T11:10:08.405Z,8920.00
2022-10-22T11:11:08.472Z,7372.00
2022-10-22T11:12:08.398Z,6552.00
2022-10-22T11:13:08.397Z,7712.00
2022-10-22T11:14:08.418Z,9672.00
2022-10-22T11:15:08.395Z,13020.00
2022-10-22T11:16:08.401Z,16512.00
2022-10-22T11:17:08.396Z,17280.00
2022-10-22T11:18:08.403Z,18624.00
2022-10-22T11:19:08.401Z,18016.00
2022-10-22T11:20:08.399Z,17248.00
2022-10-22T11:21:08.402Z,11944.00
2022-10-22T11:22:08.403Z,23712.00
2022-10-22T11:23:22.169Z,24576.00
2022-10-22T11:24:08.428Z,13092.00
2022-10-22T11:25:08.407Z,9476.00
2022-10-22T11:26:08.407Z,7296.00
2022-10-22T11:27:08.416Z,7628.00
2022-10-22T11:28:11.233Z,7560.00
2022-10-22T11:29:08.417Z,7084.00
2022-10-22T11:30:08.428Z,8468.00
2022-10-22T11:31:08.419Z,5120.00
2022-10-22T11:32:08.418Z,5784.00
2022-10-22T11:33:08.430Z,8508.00
2022-10-22T11:34:32.172Z,11068.00
2022-10-22T11:35:08.421Z,11108.00
2022-10-22T11:36:08.424Z,19776.00
2022-10-22T11:37:08.419Z,14616.00
2022-10-22T11:38:08.422Z,26336.00
2022-10-22T11:39:08.424Z,19104.00
2022-10-22T11:40:08.436Z,12360.00
2022-10-22T11:41:08.433Z,10192.00
2022-10-22T11:42:08.428Z,11200.00
2022-10-22T11:43:08.427Z,12128.00
2022-10-22T11:44:08.430Z,18240.00
2022-10-22T11:45:08.436Z,12072.00
2022-10-22T11:46:08.463Z,9308.00
2022-10-22T11:47:08.435Z,12408.00
2022-10-22T11:48:08.438Z,9912.00
2022-10-22T11:49:08.436Z,8012.00
2022-10-22T11:50:08.527Z,7124.00
2022-10-22T11:51:08.440Z,14136.00
2022-10-22T11:52:08.448Z,16960.00
2022-10-22T11:53:08.502Z,17824.00
2022-10-22T11:54:08.443Z,11964.00
2022-10-22T11:55:08.448Z,10864.00
2022-10-22T11:56:08.448Z,9580.00
2022-10-22T11:57:08.456Z,11824.00
2022-10-22T11:58:08.452Z,10716.00
2022-10-22T11:59:08.454Z,9152.00
2022-10-22T12:00:08.457Z,10140.00
2022-10-22T12:01:08.459Z,13456.00
2022-10-22T12:02:08.485Z,15100.00
2022-10-22T12:03:08.471Z,13016.00
2022-10-22T12:04:08.509Z,13116.00
2022-10-22T12:05:08.471Z,12324.00
2022-10-22T12:06:08.473Z,11752.00
2022-10-22T12:07:08.474Z,14280.00
2022-10-22T12:08:12.180Z,13460.00
2022-10-22T12:09:08.564Z,12048.00
2022-10-22T12:10:08.549Z,13888.00
2022-10-22T12:11:08.479Z,12148.00
2022-10-22T12:12:08.487Z,12620.00
2022-10-22T12:13:08.484Z,10808.00
2022-10-22T12:14:08.589Z,6940.00
2022-10-22T12:15:08.493Z,7224.00
2022-10-22T12:16:11.625Z,9476.00
2022-10-22T12:17:08.490Z,8552.00
2022-10-22T12:18:08.565Z,6952.00
2022-10-22T12:19:08.496Z,9148.00
2022-10-22T12:20:08.503Z,9260.00
2022-10-22T12:21:08.505Z,9916.00
2022-10-22T12:22:08.505Z,8792.00
2022-10-22T12:23:08.505Z,9080.00
2022-10-22T12:24:08.517Z,10016.00
2022-10-22T12:25:08.510Z,11060.00
2022-10-22T12:26:08.515Z,8260.00
2022-10-22T12:27:09.876Z,8292.00
2022-10-22T12:28:08.536Z,8976.00
2022-10-22T12:29:08.525Z,8564.00
2022-10-22T12:30:08.521Z,6208.00
2022-10-22T12:31:08.522Z,6084.00
2022-10-22T12:32:08.529Z,8980.00
2022-10-22T12:33:08.529Z,9416.00
2022-10-22T12:34:08.561Z,8384.00
2022-10-22T12:35:08.533Z,8456.00
2022-10-22T12:36:08.537Z,5712.00
2022-10-22T12:37:08.542Z,5976.00
2022-10-22T12:38:08.544Z,7272.00
2022-10-22T12:39:08.545Z,5660.00